Bagan Pulau Ketam, Malaysia

12:00 AM +08 on April 28, 2017 (GMT +0800)
Klang | | Change Station

Elev 20 ft 3.05 °N, 101.45 °E | Updated 8 seconds ago

Mostly Cloudy
Mostly Cloudy
83.3 °F
Feels Like 92 °F
N
1.3
Wind Variable Wind from ESE
Gusts 2.5 mph

Today
High -- | Low -- °F
--% Chance of Precip.
Yesterday
High -- | Low -- °F
Precip. -- in
Pressure 29.86 in
Visibility 6.2 miles
Clouds Few 1700 ft
Scattered Clouds 14000 ft
Mostly Cloudy 28000 ft
Heat Index 92 °F
Dew Point 76 °F
Humidity 80%
Rainfall 0.32 in
Snow Depth Not available.
7:05 AM 7:18 PM
New Moon, 2% visible
METAR WMKK 271530Z 32003KT 9999 FEW017CB SCT140 BKN280 28/25 Q1011 NOSIG
Pressure 29.86 in
Visibility 6.2 miles
Clouds Few 1700 ft
Scattered Clouds 14000 ft
Mostly Cloudy 28000 ft
Heat Index 92 °F
Dew Point 76 °F
Humidity 80%
Rainfall 0.32 in
Snow Depth Not available.
7:05 AM 7:18 PM
New Moon, 2% visible
METAR WMKK 271530Z 32003KT 9999 FEW017CB SCT140 BKN280 28/25 Q1011 NOSIG

Get Severe Weather Alerts

Thanks for signing up!

Be on the lookout for a verification email in your inbox.

You'll start receiving the daily forecast at 8 AM.

×

10-Day Weather Forecast

No radar image for this location.
×

Almanac

Astronomy

Apr. 28, 2017 Rise Set
Actual Time
Civil Twilight
Nautical Twilight
Astronomical Twilight
Moon
Length of Visible Light
Length of Day
Tomorrow will be .
, % of the Moon is Illuminated

Today's Extremes

Country Highs Country Lows

Community

WunderPhotos

WunderBlog® & News

Nearby

Air Quality

  Air Quality AQ Index Pollutant
Not available.

Snow Depth

Station Depth Elevation

Earthquake Activity

City Distance Mag. Time & Date
Minimum magnitude displayed is 2.5.

Coastal Water Temperatures

Place Temperature

Stations

Nearby Weather Stations

Station Location Temp. Windchill Dew Point Humidity Wind Precip. Elev Updated Type